Vera Cruz, Brazil
Current Conditions -  °F | °C
As of 8:00 AM on Saturday 25 Oct 2014 (Local Time) from SBSM Reporting Station
Haze Haze  
Wind Chill: 66°   Ceiling: Unl
Heat Index: 66°   Visibility: 2.5mi
Dew Point: 64°   Wind: 6mph
Humidity: 94%   Direction: 110°ESE
Pressure: 29.91"   Gusts: NA
Location:  29.71°S, 52.51°W
Report Text: SBSM 251000Z 11005KT 4000 BR SCT004 SCT015 19/18 Q1013
Loading
Personal Weather Stations






























Interactive Weather Map
Tropical Storm Tracking
New forecast layout! Learn more

10-Day Weather Forecast

Advertisements
Track Severe Weather on mobile